EBAW/ANR METAR and TAF weather

Enter ICAO airport designator
Station Type Date Time Source
EBAW METAR 2019/06/24 23:20 UTC NOAA

EBAW 242320Z AUTO VRB02KT CAVOK 24/19 Q1016


Station Type Date Time Source
EBAW Decoded METAR 2019/06/24 23:20 UTC NOAA

Antwerpen / Deurne, Belgium (EBAW) 51-12N 004-28E 14M
Jun 24, 2019 - 07:20 PM EDT / 2019.06.24 2320 UTC
Wind: Variable at 2 MPH (2 KT):0
Visibility: greater than 7 mile(s):0
Temperature: 75 F (24 C)
Dew Point: 66 F (19 C)
Relative Humidity: 73%
Pressure (altimeter): 30.00 in. Hg (1016 hPa)
ob: EBAW 242320Z AUTO VRB02KT CAVOK 24/19 Q1016
cycle: 23

Station Type Date Time Source
EBAW TAF 2019/04/21 09:57 UTC NOAA

TAF COR TAF COR EBAW 210813Z 2109/2121 07005KT CAVOK

Example: see airport list